Terminal Aerodrome Forecast
Issued by NWS

Home | Current Version | Previous Version | Text Only | Print | Product List | Glossary On
Versions: 1 2 3 4 5 6 7 8 9 10 11 12 13 14 15 16 17 18
000
FTUS44 KSJT 031322 AAA
TAFJCT
TAF AMD
KJCT 031322Z 0313/0412 VRB03KT P6SM SCT015
      TEMPO 0314/0316 BKN015
     FM031700 18005KT P6SM SCT030=

USA.gov is the U.S. government's official web portal to all federal, state and local government web resources and services.